Time;durP1;ratioP1;P1;durP2;ratioP2;P2;SDS_P1;SDS_P2;PMS_P1;PMS_P2;Temp;Humidity;BMP_temperature;BMP_pressure;BME280_temperature;BME280_humidity;BME280_pressure;Samples;Min_cycle;Max_cycle;Signal;HPM_P1;HPM_P2
2021/05/10 00:00:05;;;;;;;1.83;0.45;;;20.90;58.90;20.90;98328.00;;;;340036;28;85101;-88
2021/05/10 00:00:16;;;;;;;3.00;0.50;;;20.90;58.90;20.80;98325.00;;;;335301;28;96263;-88
2021/05/10 00:00:28;;;;;;;4.13;0.60;;;20.90;58.90;20.80;98343.00;;;;337575;28;83867;-87
2021/05/10 00:00:39;;;;;;;4.00;0.45;;;20.90;59.00;20.80;98327.00;;;;337008;28;94405;-87
2021/05/10 00:00:51;;;;;;;3.78;0.35;;;20.90;59.20;20.80;98331.00;;;;337497;28;84809;-86
2021/05/10 00:01:02;;;;;;;2.63;0.30;;;20.80;59.10;20.80;98337.00;;;;338131;28;96859;-86
2021/05/10 00:01:14;;;;;;;1.67;0.20;;;20.80;59.10;20.70;98342.00;;;;340032;28;84062;-87
2021/05/10 00:01:25;;;;;;;2.10;0.40;;;20.80;59.20;20.80;98324.00;;;;338174;28;95608;-87
2021/05/10 00:01:36;;;;;;;2.53;0.40;;;20.80;59.20;20.80;98328.00;;;;340153;28;85686;-87
2021/05/10 00:01:48;;;;;;;3.40;0.57;;;20.80;59.20;20.90;98331.00;;;;338297;28;96104;-87
2021/05/10 00:01:59;;;;;;;2.83;0.47;;;20.80;59.30;20.80;98355.00;;;;339017;28;84885;-87
2021/05/10 00:02:11;;;;;;;3.47;0.60;;;20.80;59.20;20.80;98328.00;;;;338243;28;96900;-86
2021/05/10 00:02:22;;;;;;;3.60;0.50;;;20.80;59.40;20.70;98323.00;;;;337551;28;84545;-87
2021/05/10 00:02:35;;;;;;;3.70;0.45;;;20.80;59.40;20.70;98319.00;;;;340825;28;96999;-88
2021/05/10 00:02:46;;;;;;;2.25;0.40;;;20.80;59.30;20.70;98304.00;;;;339097;28;84841;-88
2021/05/10 00:02:57;;;;;;;3.03;0.40;;;20.80;59.40;20.80;98322.00;;;;340223;28;97082;-86
2021/05/10 00:03:09;;;;;;;2.53;0.40;;;20.80;59.50;20.90;98334.00;;;;340059;28;82722;-86
2021/05/10 00:03:21;;;;;;;1.75;0.30;;;20.80;59.40;20.70;98295.00;;;;336906;28;96093;-87
2021/05/10 00:03:32;;;;;;;1.05;0.30;;;20.80;59.70;20.70;98327.00;;;;337600;28;84754;-87
2021/05/10 00:03:44;;;;;;;1.65;0.30;;;20.80;59.50;20.70;98325.00;;;;335789;28;97572;-87
2021/05/10 00:03:55;;;;;;;3.50;0.45;;;20.80;59.60;20.60;98309.00;;;;340305;28;83328;-87
2021/05/10 00:04:07;;;;;;;5.00;0.50;;;20.80;59.50;20.70;98316.00;;;;339606;28;95927;-86
2021/05/10 00:04:19;;;;;;;5.22;0.50;;;20.70;59.60;20.70;98318.00;;;;338915;28;83504;-86
2021/05/10 00:04:30;;;;;;;3.80;0.47;;;20.70;59.70;20.70;98328.00;;;;338125;28;94769;-87
2021/05/10 00:04:42;;;;;;;5.55;0.40;;;20.70;59.70;20.60;98300.00;;;;337645;28;83462;-86
2021/05/10 00:04:53;;;;;;;5.65;0.50;;;20.70;59.80;20.60;98314.00;;;;336754;28;97194;-87
2021/05/10 00:05:05;;;;;;;7.03;0.40;;;20.70;59.70;20.70;98340.00;;;;337439;28;83525;-86
2021/05/10 00:05:17;;;;;;;5.68;0.90;;;20.70;59.70;20.70;98328.00;;;;338016;28;96820;-86
2021/05/10 00:05:29;;;;;;;5.20;0.80;;;20.70;59.90;20.70;98312.00;;;;337513;28;84685;-88
2021/05/10 00:05:40;;;;;;;4.00;0.40;;;20.70;60.00;20.60;98313.00;;;;336588;28;94323;-86
2021/05/10 00:05:52;;;;;;;3.80;0.40;;;20.70;60.00;20.60;98313.00;;;;339539;28;84627;-87
2021/05/10 00:06:03;;;;;;;4.05;0.60;;;20.70;59.80;20.50;98323.00;;;;338096;28;97018;-85
2021/05/10 00:06:15;;;;;;;3.53;0.63;;;20.70;60.00;20.50;98316.00;;;;338835;28;83654;-86
2021/05/10 00:06:27;;;;;;;3.47;0.55;;;20.70;60.10;20.60;98308.00;;;;336847;28;97199;-87
2021/05/10 00:06:38;;;;;;;3.38;0.63;;;20.70;60.00;20.60;98308.00;;;;340353;28;83596;-86
2021/05/10 00:06:49;;;;;;;2.80;1.00;;;20.70;60.50;20.70;98320.00;;;;338090;28;96564;-86
2021/05/10 00:07:01;;;;;;;3.42;1.42;;;20.70;59.80;20.70;98309.00;;;;340176;28;84900;-87
2021/05/10 00:07:12;;;;;;;6.22;1.58;;;20.70;59.90;20.70;98309.00;;;;338148;28;98089;-86
2021/05/10 00:07:23;;;;;;;5.32;0.80;;;20.70;59.90;20.60;98311.00;;;;336291;28;84811;-86
2021/05/10 00:07:35;;;;;;;4.38;0.70;;;20.70;60.00;20.50;98303.00;;;;338168;28;97259;-87
2021/05/10 00:07:46;;;;;;;2.85;0.60;;;20.60;60.00;20.50;98301.00;;;;337583;28;83920;-86
2021/05/10 00:07:57;;;;;;;2.92;0.60;;;20.60;60.40;20.40;98312.00;;;;334255;29;97042;-86
2021/05/10 00:08:09;;;;;;;4.63;0.57;;;20.60;60.10;20.50;98310.00;;;;337619;28;84892;-85
2021/05/10 00:08:22;;;;;;;4.40;0.47;;;20.60;60.00;20.60;98321.00;;;;338039;28;97236;-87
2021/05/10 00:08:33;;;;;;;4.85;0.80;;;20.60;60.10;20.50;98320.00;;;;338574;28;83649;-87
2021/05/10 00:08:46;;;;;;;3.80;0.80;;;20.60;60.80;20.50;98310.00;;;;337317;28;94409;-87
2021/05/10 00:08:58;;;;;;;3.95;0.52;;;20.60;60.10;20.50;98313.00;;;;341524;28;84583;-87
2021/05/10 00:09:10;;;;;;;3.75;0.45;;;20.60;60.20;20.50;98318.00;;;;340857;28;97985;-86
2021/05/10 00:09:21;;;;;;;2.78;0.43;;;20.60;60.40;20.50;98300.00;;;;340206;28;85288;-86
2021/05/10 00:09:33;;;;;;;3.22;0.50;;;20.50;60.40;20.50;98321.00;;;;336854;28;96597;-86
2021/05/10 00:09:44;;;;;;;2.75;0.50;;;20.50;60.40;20.40;98310.00;;;;339240;28;83513;-86
2021/05/10 00:09:56;;;;;;;2.22;0.38;;;20.50;60.30;20.40;98306.00;;;;338233;28;97592;-86
2021/05/10 00:10:08;;;;;;;2.00;0.45;;;20.50;60.40;20.50;98314.00;;;;337584;28;84956;-86
2021/05/10 00:10:20;;;;;;;3.63;0.77;;;20.50;60.50;20.40;98305.00;;;;338134;28;97542;-87
2021/05/10 00:10:31;;;;;;;3.92;0.85;;;20.50;60.50;20.40;98323.00;;;;338705;28;83448;-87
2021/05/10 00:10:43;;;;;;;2.80;0.57;;;20.50;60.60;20.40;98314.00;;;;338163;28;97540;-86
2021/05/10 00:10:59;;;;;;;1.77;0.30;;;20.50;60.60;20.40;98316.00;;;;338794;28;85140;-88
2021/05/10 00:11:12;;;;;;;1.75;0.30;;;20.50;60.60;20.40;98322.00;;;;336803;28;98182;-87
2021/05/10 00:11:25;;;;;;;3.03;0.40;;;20.50;60.70;20.40;98317.00;;;;340166;28;84656;-86
2021/05/10 00:11:36;;;;;;;4.22;0.43;;;20.50;60.80;20.40;98312.00;;;;338092;28;97726;-88
2021/05/10 00:11:48;;;;;;;2.85;0.40;;;20.50;60.70;20.50;98313.00;;;;337141;28;84818;-86
2021/05/10 00:11:59;;;;;;;2.00;0.28;;;20.50;60.60;20.50;98308.00;;;;339312;28;97383;-86
2021/05/10 00:12:12;;;;;;;1.60;0.22;;;20.50;60.90;20.50;98310.00;;;;340138;28;84908;-86
2021/05/10 00:12:24;;;;;;;2.38;0.38;;;20.50;60.80;20.50;98319.00;;;;338137;28;95725;-86
2021/05/10 00:12:36;;;;;;;3.53;0.40;;;20.50;60.80;20.40;98332.00;;;;338934;28;84146;-86
2021/05/10 00:12:48;;;;;;;3.28;0.40;;;20.50;60.90;20.40;98324.00;;;;335540;28;94513;-86
2021/05/10 00:12:59;;;;;;;2.72;0.38;;;20.50;60.80;20.40;98337.00;;;;336156;28;84825;-88
2021/05/10 00:13:13;;;;;;;2.35;0.40;;;20.50;60.80;20.40;98309.00;;;;336889;28;95192;-86
2021/05/10 00:13:26;;;;;;;3.42;0.50;;;20.50;60.80;20.40;98317.00;;;;340119;28;83574;-89
2021/05/10 00:13:41;;;;;;;3.75;0.57;;;20.50;60.60;20.40;98330.00;;;;336833;28;97746;-86
2021/05/10 00:13:54;;;;;;;3.03;0.43;;;20.50;60.70;20.40;98330.00;;;;337566;28;85618;-86
2021/05/10 00:14:06;;;;;;;5.55;0.60;;;20.40;60.70;20.40;98332.00;;;;336780;28;96274;-86
2021/05/10 00:14:27;;;;;;;6.95;0.73;;;20.40;60.70;20.40;98336.00;;;;336367;28;82378;-87
2021/05/10 00:14:43;;;;;;;3.38;0.40;;;20.50;60.80;20.50;98340.00;;;;338032;28;96950;-88
2021/05/10 00:14:55;;;;;;;3.78;0.50;;;20.50;60.80;20.40;98348.00;;;;340077;28;85696;-87
2021/05/10 00:15:07;;;;;;;3.47;0.47;;;20.50;61.40;20.50;98350.00;;;;339507;28;97175;-87
2021/05/10 00:15:18;;;;;;;2.92;0.35;;;20.40;60.90;20.50;98349.00;;;;341170;28;83841;-86
2021/05/10 00:15:30;;;;;;;2.65;0.40;;;20.40;60.80;20.50;98347.00;;;;339447;28;98163;-86
2021/05/10 00:15:41;;;;;;;4.32;0.50;;;20.50;61.00;20.50;98369.00;;;;340059;28;83655;-89
2021/05/10 00:15:54;;;;;;;6.43;0.60;;;20.50;60.90;20.40;98364.00;;;;338207;28;96840;-86
2021/05/10 00:16:05;;;;;;;6.25;0.60;;;20.50;61.00;20.40;98369.00;;;;340071;28;83582;-86
2021/05/10 00:16:17;;;;;;;4.57;0.43;;;20.40;61.10;20.40;98365.00;;;;338001;28;96019;-87
2021/05/10 00:16:30;;;;;;;4.57;0.32;;;20.40;61.20;20.40;98360.00;;;;338699;28;84109;-86
2021/05/10 00:16:41;;;;;;;5.93;0.50;;;20.40;61.10;20.30;98367.00;;;;339530;28;97415;-86
2021/05/10 00:16:53;;;;;;;6.82;0.50;;;20.40;61.10;20.40;98362.00;;;;340198;28;85057;-86
2021/05/10 00:17:04;;;;;;;5.40;0.47;;;20.40;61.00;20.40;98369.00;;;;338176;28;96906;-87
2021/05/10 00:17:16;;;;;;;3.20;0.47;;;20.40;61.10;20.40;98384.00;;;;337500;28;84633;-88
2021/05/10 00:17:27;;;;;;;2.60;0.47;;;20.40;61.10;20.40;98373.00;;;;336814;28;98807;-86
2021/05/10 00:17:39;;;;;;;2.05;0.35;;;20.40;61.30;20.30;98379.00;;;;337370;28;84107;-87
2021/05/10 00:17:50;;;;;;;1.20;0.20;;;20.40;61.20;20.30;98378.00;;;;339334;28;93337;-87
2021/05/10 00:18:05;;;;;;;0.90;0.20;;;20.40;61.20;20.40;98376.00;;;;340103;28;83760;-87
2021/05/10 00:18:18;;;;;;;2.85;0.32;;;20.30;61.20;20.30;98377.00;;;;338104;28;97128;-87
2021/05/10 00:18:30;;;;;;;3.10;0.40;;;20.30;61.20;20.20;98374.00;;;;338940;28;84258;-86
2021/05/10 00:18:41;;;;;;;1.77;0.40;;;20.30;61.40;20.30;98370.00;;;;335672;28;94544;-86
2021/05/10 00:18:52;;;;;;;1.48;0.38;;;20.30;61.20;20.30;98384.00;;;;337526;28;84922;-87
2021/05/10 00:19:04;;;;;;;1.40;0.30;;;20.30;61.20;20.30;98384.00;;;;335525;28;95913;-86
2021/05/10 00:19:15;;;;;;;1.63;0.30;;;20.30;61.30;20.30;98389.00;;;;337626;28;84480;-87
2021/05/10 00:19:27;;;;;;;2.44;0.30;;;20.30;61.30;20.30;98378.00;;;;336838;28;97767;-86
2021/05/10 00:19:39;;;;;;;2.15;0.30;;;20.30;61.50;20.30;98385.00;;;;334837;29;85165;-87
2021/05/10 00:19:50;;;;;;;2.03;0.30;;;20.30;61.50;20.30;98380.00;;;;336740;28;96896;-86
2021/05/10 00:20:03;;;;;;;2.58;0.25;;;20.30;61.60;20.20;98384.00;;;;338633;28;83922;-87
2021/05/10 00:20:14;;;;;;;3.70;0.32;;;20.30;61.50;20.20;98391.00;;;;340653;28;96162;-88
2021/05/10 00:20:26;;;;;;;3.20;0.40;;;20.30;61.60;20.20;98381.00;;;;337536;28;83935;-86
2021/05/10 00:20:41;;;;;;;2.47;0.75;;;20.30;61.80;20.10;98390.00;;;;337949;28;96075;-86
2021/05/10 00:20:52;;;;;;;2.80;0.80;;;20.30;61.70;20.10;98391.00;;;;339918;28;84663;-87
2021/05/10 00:21:04;;;;;;;2.33;0.60;;;20.20;61.70;20.10;98390.00;;;;339365;28;97226;-87
2021/05/10 00:21:16;;;;;;;2.53;0.50;;;20.20;61.60;20.10;98400.00;;;;340117;28;84730;-87
2021/05/10 00:21:27;;;;;;;3.15;0.55;;;20.20;61.70;20.20;98399.00;;;;339394;28;99089;-86
2021/05/10 00:21:39;;;;;;;4.20;0.60;;;20.20;61.60;20.10;98369.00;;;;340168;28;84473;-86
2021/05/10 00:21:50;;;;;;;3.17;0.55;;;20.20;61.70;20.10;98381.00;;;;339301;28;96805;-86
2021/05/10 00:22:01;;;;;;;2.05;0.32;;;20.20;61.70;20.10;98388.00;;;;338939;28;84951;-86
2021/05/10 00:22:13;;;;;;;1.77;0.25;;;20.20;61.80;20.00;98394.00;;;;339535;28;95795;-87
2021/05/10 00:22:27;;;;;;;1.98;0.35;;;20.10;61.80;20.00;98390.00;;;;340145;28;84804;-86
2021/05/10 00:22:40;;;;;;;3.00;0.70;;;20.10;61.60;20.00;98395.00;;;;339388;28;96137;-86
2021/05/10 00:22:51;;;;;;;5.35;0.70;;;20.10;61.80;20.10;98389.00;;;;340070;28;84751;-86
2021/05/10 00:23:03;;;;;;;4.30;0.50;;;20.20;61.70;20.10;98371.00;;;;336786;28;96842;-86
2021/05/10 00:23:15;;;;;;;2.90;0.50;;;20.10;62.00;20.00;98395.00;;;;338994;28;83338;-87
2021/05/10 00:23:27;;;;;;;1.50;0.60;;;20.10;62.10;20.00;98388.00;;;;338091;28;98089;-86
2021/05/10 00:23:39;;;;;;;1.67;0.50;;;20.10;61.90;20.10;98392.00;;;;339960;28;83394;-87
2021/05/10 00:23:50;;;;;;;2.70;0.40;;;20.10;62.20;20.10;98392.00;;;;337744;28;96810;-87
2021/05/10 00:24:02;;;;;;;2.88;0.20;;;20.10;62.00;20.10;98393.00;;;;338906;28;84878;-86
2021/05/10 00:24:13;;;;;;;3.08;0.20;;;20.10;61.90;20.00;98398.00;;;;338156;28;94035;-87
2021/05/10 00:24:25;;;;;;;2.22;0.30;;;20.10;61.90;20.10;98408.00;;;;337599;28;83499;-87
2021/05/10 00:24:36;;;;;;;1.45;0.30;;;20.10;61.80;20.10;98390.00;;;;335660;28;96315;-86
2021/05/10 00:24:48;;;;;;;1.10;0.40;;;20.10;62.20;20.20;98392.00;;;;339994;28;83598;-86
2021/05/10 00:24:59;;;;;;;2.22;0.30;;;20.10;62.10;20.00;98396.00;;;;338068;28;96733;-87
2021/05/10 00:25:11;;;;;;;2.60;0.30;;;20.10;62.30;20.10;98388.00;;;;338857;28;84768;-86
2021/05/10 00:25:23;;;;;;;2.75;0.30;;;20.10;62.40;20.00;98383.00;;;;336796;28;97791;-87
2021/05/10 00:25:35;;;;;;;2.03;0.30;;;20.10;62.20;19.90;98380.00;;;;338927;28;84830;-87
2021/05/10 00:25:47;;;;;;;4.90;0.40;;;20.00;62.10;19.90;98386.00;;;;335537;28;97348;-87
2021/05/10 00:25:58;;;;;;;4.68;0.50;;;20.00;62.10;19.90;98391.00;;;;338827;28;84875;-86
2021/05/10 00:26:09;;;;;;;3.90;0.43;;;20.00;62.10;20.00;98392.00;;;;336918;28;96655;-86
2021/05/10 00:26:21;;;;;;;1.17;0.30;;;20.00;62.30;20.00;98387.00;;;;338846;28;85080;-86
2021/05/10 00:26:33;;;;;;;1.77;0.30;;;20.00;62.30;20.00;98384.00;;;;338124;28;96832;-90
2021/05/10 00:26:44;;;;;;;4.15;0.52;;;20.00;62.30;20.00;98391.00;;;;337510;28;83642;-87
2021/05/10 00:26:56;;;;;;;5.10;1.00;;;20.00;62.40;20.00;98389.00;;;;337986;28;95740;-87
2021/05/10 00:27:07;;;;;;;3.72;0.82;;;20.00;62.30;19.90;98382.00;;;;336312;28;83498;-86
2021/05/10 00:27:18;;;;;;;4.75;0.60;;;20.00;62.40;20.00;98392.00;;;;339165;28;96936;-86
2021/05/10 00:27:30;;;;;;;4.60;0.75;;;20.00;62.30;19.90;98393.00;;;;338940;28;84532;-87
2021/05/10 00:27:41;;;;;;;5.30;0.85;;;20.00;62.50;20.00;98385.00;;;;336737;28;97655;-87
2021/05/10 00:27:53;;;;;;;3.60;0.60;;;20.00;62.40;20.00;98378.00;;;;340138;28;84967;-87
2021/05/10 00:28:05;;;;;;;4.95;0.35;;;20.00;62.40;20.00;98381.00;;;;336759;28;96071;-86
2021/05/10 00:28:16;;;;;;;4.10;0.30;;;20.00;62.40;20.10;98385.00;;;;338865;28;83733;-87
2021/05/10 00:28:27;;;;;;;4.55;0.38;;;20.00;62.40;20.10;98382.00;;;;335446;28;97700;-86
2021/05/10 00:28:39;;;;;;;3.35;0.57;;;20.00;62.40;20.10;98383.00;;;;341558;28;84541;-85
2021/05/10 00:28:50;;;;;;;2.85;0.57;;;20.00;62.30;20.00;98384.00;;;;339576;28;94793;-87
2021/05/10 00:29:02;;;;;;;3.25;0.43;;;20.00;62.40;19.90;98385.00;;;;338580;28;83889;-86
2021/05/10 00:29:17;;;;;;;5.22;0.50;;;20.00;62.60;19.90;98381.00;;;;339430;28;98171;-87
2021/05/10 00:29:29;;;;;;;6.40;0.70;;;20.00;62.50;19.90;98366.00;;;;340064;28;83925;-86
2021/05/10 00:29:40;;;;;;;4.72;0.65;;;20.00;62.50;19.90;98374.00;;;;336378;28;97647;-86
2021/05/10 00:29:51;;;;;;;3.38;0.40;;;20.00;62.70;19.90;98383.00;;;;339459;28;84526;-87
2021/05/10 00:30:04;;;;;;;3.72;0.40;;;20.00;62.80;19.90;98387.00;;;;336365;28;95815;-86
2021/05/10 00:30:17;;;;;;;5.00;0.52;;;20.00;62.60;19.90;98388.00;;;;338837;28;83432;-86
2021/05/10 00:30:28;;;;;;;4.18;0.45;;;20.00;62.70;19.90;98377.00;;;;335556;28;97365;-86
2021/05/10 00:30:40;;;;;;;2.42;0.32;;;20.00;62.70;19.90;98376.00;;;;338907;28;84791;-86
2021/05/10 00:30:51;;;;;;;1.45;0.40;;;19.90;63.20;19.90;98364.00;;;;337996;28;96796;-87
2021/05/10 00:31:02;;;;;;;2.38;0.40;;;19.90;62.70;20.00;98368.00;;;;338789;28;84542;-87
2021/05/10 00:31:14;;;;;;;3.00;0.50;;;19.90;62.50;20.00;98374.00;;;;336788;28;97773;-87
2021/05/10 00:31:25;;;;;;;4.70;0.68;;;20.00;62.50;20.10;98368.00;;;;340201;28;83492;-88
2021/05/10 00:31:37;;;;;;;4.55;1.20;;;19.90;62.40;20.10;98373.00;;;;338162;28;97291;-86
2021/05/10 00:31:48;;;;;;;4.28;1.10;;;20.00;62.70;20.00;98370.00;;;;338790;28;83983;-87
2021/05/10 00:32:00;;;;;;;2.45;0.93;;;20.00;62.70;20.00;98373.00;;;;339555;28;97234;-87
2021/05/10 00:32:12;;;;;;;2.15;0.40;;;20.00;62.70;19.90;98375.00;;;;340158;28;84451;-87
2021/05/10 00:32:24;;;;;;;2.33;0.43;;;20.00;62.70;20.00;98384.00;;;;338199;28;96405;-86
2021/05/10 00:32:42;;;;;;;4.35;1.10;;;20.00;62.70;20.00;98377.00;;;;338565;28;84656;-86
2021/05/10 00:32:55;;;;;;;5.18;1.00;;;20.00;62.60;20.00;98372.00;;;;336671;28;97072;-87
2021/05/10 00:33:06;;;;;;;4.43;0.30;;;20.00;62.70;20.00;98383.00;;;;340002;28;83473;-87
2021/05/10 00:33:18;;;;;;;4.47;0.40;;;20.00;62.70;20.10;98374.00;;;;337927;28;97287;-86
2021/05/10 00:33:30;;;;;;;4.15;0.45;;;20.00;62.60;20.00;98383.00;;;;339010;28;83422;-86
2021/05/10 00:33:41;;;;;;;5.18;0.50;;;20.00;62.60;20.00;98383.00;;;;338117;28;96570;-87
2021/05/10 00:33:52;;;;;;;3.42;0.35;;;20.00;62.70;20.00;98373.00;;;;340008;28;84528;-88
2021/05/10 00:34:04;;;;;;;1.30;0.30;;;20.00;62.50;19.90;98371.00;;;;338133;28;96845;-86
2021/05/10 00:34:15;;;;;;;3.22;0.30;;;20.00;62.50;20.10;98380.00;;;;338958;28;83276;-89
2021/05/10 00:34:26;;;;;;;4.22;0.38;;;20.00;62.70;20.10;98379.00;;;;336847;28;97610;-87
2021/05/10 00:34:38;;;;;;;4.90;0.68;;;20.00;62.50;20.00;98379.00;;;;337588;28;84756;-86
2021/05/10 00:34:49;;;;;;;3.17;0.80;;;20.00;62.40;20.10;98375.00;;;;338064;28;95985;-86
2021/05/10 00:35:01;;;;;;;2.88;0.70;;;20.00;62.40;20.00;98385.00;;;;340218;28;83337;-88
2021/05/10 00:35:13;;;;;;;1.65;0.47;;;20.00;62.70;20.00;98391.00;;;;339432;28;98185;-88
2021/05/10 00:35:25;;;;;;;4.25;0.70;;;20.00;62.60;19.90;98386.00;;;;340245;28;84422;-88
2021/05/10 00:35:36;;;;;;;4.65;0.70;;;20.00;62.50;19.90;98389.00;;;;339233;28;95921;-87
2021/05/10 00:35:47;;;;;;;3.75;0.50;;;20.00;62.50;19.90;98381.00;;;;337677;28;83827;-86
2021/05/10 00:35:59;;;;;;;2.15;0.35;;;19.90;62.40;19.90;98385.00;;;;339434;28;97232;-87
2021/05/10 00:36:10;;;;;;;5.60;1.00;;;20.00;62.60;20.00;98387.00;;;;343032;28;84965;-86
2021/05/10 00:36:22;;;;;;;6.88;1.08;;;20.00;62.60;20.00;98385.00;;;;338022;28;96789;-87
2021/05/10 00:36:33;;;;;;;5.72;1.10;;;20.00;62.50;20.00;98388.00;;;;337592;28;84867;-86
2021/05/10 00:36:45;;;;;;;4.43;0.60;;;20.00;62.50;20.00;98385.00;;;;336766;28;97565;-87
2021/05/10 00:36:56;;;;;;;3.94;0.58;;;20.00;62.40;20.10;98387.00;;;;338715;28;85183;-88
2021/05/10 00:37:08;;;;;;;4.07;0.50;;;20.00;62.30;20.10;98385.00;;;;339229;28;97731;-86
2021/05/10 00:37:19;;;;;;;3.40;0.40;;;20.00;62.50;20.10;98386.00;;;;337511;28;84850;-87
2021/05/10 00:37:31;;;;;;;3.33;0.50;;;20.00;62.60;20.10;98383.00;;;;338238;28;96820;-86
2021/05/10 00:37:43;;;;;;;2.72;0.40;;;20.00;62.60;20.10;98386.00;;;;337514;28;83526;-86
2021/05/10 00:37:54;;;;;;;2.55;0.60;;;20.00;62.60;20.10;98395.00;;;;338165;28;97473;-86
2021/05/10 00:38:05;;;;;;;3.05;0.70;;;20.00;62.60;20.00;98394.00;;;;337551;28;84470;-87
2021/05/10 00:38:17;;;;;;;3.17;0.85;;;20.00;62.70;19.90;98397.00;;;;336930;28;94450;-86
2021/05/10 00:38:28;;;;;;;3.55;1.10;;;20.00;62.70;19.90;98395.00;;;;337490;28;85064;-86
2021/05/10 00:38:39;;;;;;;6.95;0.88;;;20.00;62.60;19.90;98404.00;;;;335354;28;96785;-88
2021/05/10 00:38:51;;;;;;;9.85;0.85;;;19.90;62.30;20.00;98402.00;;;;337283;28;84875;-87
2021/05/10 00:39:04;;;;;;;9.50;0.60;;;20.00;62.40;19.90;98393.00;;;;337806;28;98349;-86
2021/05/10 00:39:15;;;;;;;2.17;0.50;;;20.00;62.70;19.90;98388.00;;;;337543;28;84412;-87
2021/05/10 00:39:26;;;;;;;3.00;0.80;;;20.00;62.70;19.90;98389.00;;;;339540;28;97495;-87
2021/05/10 00:39:38;;;;;;;2.63;0.82;;;20.00;62.80;20.00;98382.00;;;;338830;28;84101;-87
2021/05/10 00:39:49;;;;;;;2.97;0.55;;;20.00;62.70;19.90;98401.00;;;;338993;28;96292;-86
2021/05/10 00:40:00;;;;;;;2.83;0.40;;;20.00;62.70;20.00;98392.00;;;;337664;28;83392;-86
2021/05/10 00:40:17;;;;;;;3.40;0.43;;;20.00;62.60;20.00;98392.00;;;;339505;28;97788;-86
2021/05/10 00:40:30;;;;;;;1.98;0.50;;;20.00;62.60;19.90;98389.00;;;;340105;28;84027;-86
2021/05/10 00:40:42;;;;;;;1.00;0.30;;;20.00;63.20;19.90;98394.00;;;;338182;28;97015;-86
2021/05/10 00:40:53;;;;;;;1.08;0.30;;;20.00;62.70;20.00;98394.00;;;;340223;28;83678;-87
2021/05/10 00:41:04;;;;;;;1.60;0.30;;;20.00;62.60;20.00;98386.00;;;;335348;28;97631;-88
2021/05/10 00:41:16;;;;;;;2.65;0.20;;;20.00;63.30;20.00;98394.00;;;;338791;28;83809;-87
2021/05/10 00:41:27;;;;;;;2.90;0.30;;;20.00;62.70;20.00;98406.00;;;;336879;28;96732;-86
2021/05/10 00:41:38;;;;;;;2.92;0.30;;;20.00;62.80;20.00;98400.00;;;;340048;28;82531;-86
2021/05/10 00:41:50;;;;;;;2.42;0.28;;;20.00;62.60;20.00;98411.00;;;;339135;28;96413;-87
2021/05/10 00:42:01;;;;;;;2.85;0.30;;;20.00;62.70;19.80;98404.00;;;;339019;28;84651;-86
2021/05/10 00:42:12;;;;;;;2.75;0.30;;;20.00;62.90;19.80;98403.00;;;;338313;28;95908;-86
2021/05/10 00:42:24;;;;;;;2.63;0.77;;;20.00;62.90;19.90;98407.00;;;;337459;28;84702;-87
2021/05/10 00:42:36;;;;;;;2.08;0.80;;;20.00;62.80;19.90;98412.00;;;;339513;28;97360;-87
2021/05/10 00:42:48;;;;;;;2.20;0.47;;;20.00;62.70;19.90;98416.00;;;;338405;28;83462;-86
2021/05/10 00:43:00;;;;;;;2.63;0.50;;;20.00;62.90;19.90;98404.00;;;;340646;28;98444;-87
2021/05/10 00:43:11;;;;;;;2.65;0.60;;;19.90;62.60;20.00;98418.00;;;;341566;28;84433;-87
2021/05/10 00:43:22;;;;;;;2.50;0.50;;;19.90;62.60;20.00;98405.00;;;;338166;28;96862;-87
2021/05/10 00:43:34;;;;;;;2.28;0.38;;;19.90;62.70;20.00;98407.00;;;;336135;28;83437;-87
2021/05/10 00:43:45;;;;;;;2.33;0.40;;;19.90;62.70;19.90;98412.00;;;;335435;28;97307;-87
2021/05/10 00:43:56;;;;;;;2.05;0.40;;;19.90;62.70;19.80;98400.00;;;;337480;28;84660;-86
2021/05/10 00:44:08;;;;;;;1.08;0.30;;;19.90;62.80;19.80;98411.00;;;;337981;28;96973;-86
2021/05/10 00:44:19;;;;;;;2.13;0.60;;;19.90;62.80;19.90;98404.00;;;;338803;28;84886;-86
2021/05/10 00:44:31;;;;;;;3.05;0.70;;;19.90;62.80;19.90;98413.00;;;;337989;28;95823;-86
2021/05/10 00:44:42;;;;;;;3.20;0.65;;;19.90;62.90;19.80;98406.00;;;;339762;28;85098;-87
2021/05/10 00:44:53;;;;;;;1.58;0.30;;;19.90;62.90;19.90;98410.00;;;;339368;28;97669;-88
2021/05/10 00:45:06;;;;;;;1.50;0.30;;;19.90;63.10;19.90;98402.00;;;;338777;28;85159;-87
2021/05/10 00:45:18;;;;;;;2.80;0.40;;;19.90;63.30;19.80;98405.00;;;;339152;28;96142;-86
2021/05/10 00:45:29;;;;;;;3.28;0.50;;;19.90;63.10;19.70;98401.00;;;;338908;28;84710;-87
2021/05/10 00:45:40;;;;;;;2.72;0.50;;;19.90;63.10;19.80;98399.00;;;;338166;28;95704;-86
2021/05/10 00:45:52;;;;;;;2.10;0.45;;;19.90;62.90;19.90;98394.00;;;;336269;28;83786;-87
2021/05/10 00:46:03;;;;;;;2.45;0.55;;;19.90;63.00;19.90;98399.00;;;;336821;28;96297;-87
2021/05/10 00:46:15;;;;;;;3.40;0.88;;;19.90;63.10;19.80;98409.00;;;;338692;28;83559;-88
2021/05/10 00:46:26;;;;;;;3.65;0.80;;;19.90;63.20;19.90;98401.00;;;;335559;28;94578;-87
2021/05/10 00:46:38;;;;;;;2.47;0.63;;;19.90;63.00;19.90;98408.00;;;;339029;28;83407;-86
2021/05/10 00:46:52;;;;;;;2.45;0.43;;;19.90;62.90;19.70;98406.00;;;;336777;28;97979;-88
2021/05/10 00:47:04;;;;;;;2.03;0.30;;;19.80;62.90;19.70;98409.00;;;;338656;28;84523;-87
2021/05/10 00:47:15;;;;;;;2.78;0.45;;;19.80;63.10;19.70;98398.00;;;;335380;28;96924;-87
2021/05/10 00:47:27;;;;;;;3.10;0.50;;;19.80;63.00;19.80;98404.00;;;;337387;28;83754;-86
2021/05/10 00:47:39;;;;;;;4.07;0.60;;;19.80;63.10;19.80;98415.00;;;;337945;28;96905;-88
2021/05/10 00:47:50;;;;;;;3.67;0.45;;;19.80;63.30;19.80;98414.00;;;;338006;28;83823;-86
2021/05/10 00:48:04;;;;;;;2.75;0.50;;;19.80;63.10;19.80;98400.00;;;;339376;28;96974;-87
2021/05/10 00:48:17;;;;;;;1.88;0.30;;;19.80;63.20;19.80;98411.00;;;;339999;28;84472;-86
2021/05/10 00:48:29;;;;;;;2.28;0.40;;;19.80;63.20;19.80;98418.00;;;;335532;28;96895;-86
2021/05/10 00:48:40;;;;;;;2.90;0.40;;;19.80;63.30;19.80;98419.00;;;;337531;28;84626;-86
2021/05/10 00:48:52;;;;;;;2.38;0.38;;;19.80;63.10;19.70;98420.00;;;;336797;28;98308;-87
2021/05/10 00:49:04;;;;;;;2.25;0.30;;;19.80;63.10;19.80;98411.00;;;;338789;28;84764;-87
2021/05/10 00:49:15;;;;;;;2.40;0.30;;;19.80;63.30;19.90;98413.00;;;;338169;28;94430;-87
2021/05/10 00:49:27;;;;;;;2.95;0.30;;;19.80;63.20;19.90;98411.00;;;;338895;28;84159;-86
2021/05/10 00:49:38;;;;;;;2.75;0.30;;;19.80;63.10;19.80;98415.00;;;;337919;28;97582;-86
2021/05/10 00:49:49;;;;;;;3.40;0.30;;;19.80;63.00;19.90;98422.00;;;;340109;28;83012;-86
2021/05/10 00:50:02;;;;;;;3.15;0.40;;;19.80;63.10;19.90;98416.00;;;;339555;28;97133;-86
2021/05/10 00:50:14;;;;;;;3.42;0.55;;;19.90;63.30;19.90;98417.00;;;;338777;28;85450;-88
2021/05/10 00:50:26;;;;;;;2.80;0.65;;;19.80;63.10;19.90;98432.00;;;;338164;28;94688;-87
2021/05/10 00:50:37;;;;;;;2.55;0.68;;;19.90;63.30;19.80;98416.00;;;;340172;28;85161;-86
2021/05/10 00:50:48;;;;;;;3.13;0.60;;;19.90;63.30;19.70;98417.00;;;;337697;28;96943;-86
2021/05/10 00:51:00;;;;;;;2.78;0.45;;;19.80;63.30;19.80;98410.00;;;;339498;28;83864;-87
2021/05/10 00:51:11;;;;;;;3.08;0.50;;;19.80;63.20;19.80;98412.00;;;;336796;28;94759;-86
2021/05/10 00:51:22;;;;;;;2.63;0.57;;;19.80;63.10;19.80;98405.00;;;;337448;28;83489;-86
2021/05/10 00:51:34;;;;;;;3.08;0.50;;;19.80;63.20;19.70;98408.00;;;;336989;28;96750;-87
2021/05/10 00:51:45;;;;;;;3.13;0.40;;;19.80;63.20;19.70;98414.00;;;;337394;28;84847;-86
2021/05/10 00:51:56;;;;;;;3.08;0.32;;;19.80;63.10;19.80;98424.00;;;;340644;28;98113;-86
2021/05/10 00:52:08;;;;;;;2.08;0.38;;;19.80;63.00;19.90;98437.00;;;;336222;28;84695;-87
2021/05/10 00:52:19;;;;;;;1.90;0.60;;;19.80;63.10;19.90;98425.00;;;;338043;28;96632;-85
2021/05/10 00:52:31;;;;;;;2.45;0.60;;;19.80;63.00;19.80;98431.00;;;;338910;28;83764;-86
2021/05/10 00:52:42;;;;;;;2.25;0.35;;;19.80;63.20;19.70;98430.00;;;;336763;28;97799;-87
2021/05/10 00:52:54;;;;;;;1.55;0.30;;;19.80;63.30;19.80;98428.00;;;;340187;28;84743;-87
2021/05/10 00:53:05;;;;;;;1.92;0.40;;;19.80;63.30;19.80;98425.00;;;;338169;28;97314;-87